EZY365G EGCC-EGAC
Flight info
| Callsign | EZY365G |
|---|---|
| Flight time | 0h 34m |
| Altitude | 24000 |
| Route | EKLAD Y53 WAL M146 ERDUV Z198 MASOP M148 MAGEE |
| Aircraft | A320/M-SDE2E3FGHIJ1RWXYZ/LB1 |
Departure
| Time | 2026-04-24 16:24 |
|---|---|
| Airport | Manchester Airport (EGCC) |
Arrival
| Time | 2026-04-24 16:58 |
|---|---|
| Airport | George Best Belfast City Airport (EGAC) |
| Time | Latitude | Longitude | Altitude | Speed | Heading |
|---|---|---|---|---|---|
| 2026-04-24 15:44 | 53.36836 | -2.28882 | 248 ft | 0 kts | 135° |
| 2026-04-24 16:09 | 53.36852 | -2.28911 | 248 ft | 3 kts | 135° |
| 2026-04-24 16:09 | 53.36866 | -2.28931 | 247 ft | 4 kts | 187° |
| 2026-04-24 16:09 | 53.36878 | -2.28921 | 247 ft | 4 kts | 225° |
| 2026-04-24 16:09 | 53.36872 | -2.28931 | 247 ft | 4 kts | 225° |
| 2026-04-24 16:10 | 53.36868 | -2.28938 | 247 ft | 0 kts | 225° |
| 2026-04-24 16:14 | 53.36851 | -2.28967 | 247 ft | 8 kts | 225° |
| 2026-04-24 16:15 | 53.36824 | -2.29011 | 247 ft | 8 kts | 221° |
| 2026-04-24 16:15 | 53.36703 | -2.29009 | 247 ft | 10 kts | 147° |
| 2026-04-24 16:16 | 53.36612 | -2.28863 | 247 ft | 8 kts | 133° |
| 2026-04-24 16:16 | 53.36572 | -2.28752 | 247 ft | 14 kts | 120° |
| 2026-04-24 16:17 | 53.36364 | -2.28329 | 247 ft | 15 kts | 134° |
| 2026-04-24 16:17 | 53.36197 | -2.28048 | 247 ft | 19 kts | 135° |
| 2026-04-24 16:18 | 53.36074 | -2.27847 | 247 ft | 3 kts | 142° |
| 2026-04-24 16:18 | 53.36023 | -2.27843 | 247 ft | 4 kts | 185° |
| 2026-04-24 16:18 | 53.35994 | -2.27845 | 247 ft | 6 kts | 182° |
| 2026-04-24 16:19 | 53.35849 | -2.27803 | 247 ft | 14 kts | 130° |
| 2026-04-24 16:19 | 53.35785 | -2.27683 | 247 ft | 14 kts | 138° |
| 2026-04-24 16:20 | 53.35634 | -2.27544 | 248 ft | 12 kts | 139° |
| 2026-04-24 16:20 | 53.35591 | -2.27482 | 254 ft | 0 kts | 139° |
| 2026-04-24 16:21 | 53.35581 | -2.27468 | 255 ft | 6 kts | 139° |
| 2026-04-24 16:21 | 53.35530 | -2.27396 | 261 ft | 13 kts | 144° |
| 2026-04-24 16:22 | 53.35451 | -2.27293 | 261 ft | 15 kts | 140° |
| 2026-04-24 16:22 | 53.35255 | -2.27209 | 249 ft | 20 kts | 189° |
| 2026-04-24 16:22 | 53.35138 | -2.27250 | 243 ft | 15 kts | 192° |
| 2026-04-24 16:23 | 53.35031 | -2.27292 | 239 ft | 15 kts | 204° |
| 2026-04-24 16:23 | 53.34957 | -2.27427 | 239 ft | 21 kts | 232° |
| 2026-04-24 16:23 | 53.34734 | -2.27883 | 235 ft | 86 kts | 230° |
| 2026-04-24 16:24 | 53.33522 | -2.30377 | 538 ft | 163 kts | 230° |
| 2026-04-24 16:24 | 53.32810 | -2.31861 | 1275 ft | 164 kts | 230° |
| 2026-04-24 16:24 | 53.32078 | -2.33428 | 1802 ft | 181 kts | 234° |
| 2026-04-24 16:24 | 53.31472 | -2.35403 | 2205 ft | 203 kts | 249° |
| 2026-04-24 16:25 | 53.31201 | -2.37868 | 2491 ft | 233 kts | 269° |
| 2026-04-24 16:25 | 53.31469 | -2.40690 | 2813 ft | 257 kts | 284° |
| 2026-04-24 16:25 | 53.31894 | -2.43650 | 3091 ft | 264 kts | 278° |
| 2026-04-24 16:26 | 53.31450 | -2.49700 | 3600 ft | 265 kts | 251° |
| 2026-04-24 16:26 | 53.30884 | -2.52638 | 3852 ft | 267 kts | 252° |
| 2026-04-24 16:26 | 53.29782 | -2.58606 | 4353 ft | 272 kts | 251° |
| 2026-04-24 16:27 | 53.29228 | -2.61648 | 4611 ft | 274 kts | 252° |
| 2026-04-24 16:27 | 53.28673 | -2.64686 | 4861 ft | 274 kts | 251° |
| 2026-04-24 16:27 | 53.28112 | -2.67737 | 4988 ft | 274 kts | 252° |
| 2026-04-24 16:27 | 53.27551 | -2.70773 | 5009 ft | 273 kts | 251° |
| 2026-04-24 16:28 | 53.26989 | -2.73804 | 5014 ft | 273 kts | 252° |
| 2026-04-24 16:28 | 53.26425 | -2.76828 | 5015 ft | 274 kts | 251° |
| 2026-04-24 16:28 | 53.26231 | -2.83135 | 5135 ft | 281 kts | 287° |
| 2026-04-24 16:29 | 53.27044 | -2.86067 | 6160 ft | 279 kts | 303° |
| 2026-04-24 16:29 | 53.28184 | -2.88691 | 7122 ft | 280 kts | 306° |
| 2026-04-24 16:29 | 53.30535 | -2.93972 | 8916 ft | 285 kts | 307° |
| 2026-04-24 16:30 | 53.32921 | -2.99334 | 10565 ft | 295 kts | 307° |
| 2026-04-24 16:30 | 53.34197 | -3.02198 | 10854 ft | 318 kts | 307° |
| 2026-04-24 16:30 | 53.35543 | -3.05220 | 11408 ft | 328 kts | 307° |
| 2026-04-24 16:31 | 53.36921 | -3.08314 | 12138 ft | 334 kts | 307° |
| 2026-04-24 16:31 | 53.38317 | -3.11453 | 12878 ft | 339 kts | 307° |
| 2026-04-24 16:31 | 53.39825 | -3.14516 | 13598 ft | 343 kts | 315° |
| 2026-04-24 16:31 | 53.41516 | -3.17378 | 14305 ft | 347 kts | 315° |
| 2026-04-24 16:32 | 53.42641 | -3.19287 | 14741 ft | 349 kts | 315° |
| 2026-04-24 16:32 | 53.44939 | -3.23196 | 15632 ft | 354 kts | 315° |
| 2026-04-24 16:32 | 53.46670 | -3.26150 | 16248 ft | 358 kts | 315° |
| 2026-04-24 16:32 | 53.48426 | -3.29153 | 16863 ft | 362 kts | 315° |
| 2026-04-24 16:33 | 53.50176 | -3.32148 | 17479 ft | 366 kts | 315° |
| 2026-04-24 16:33 | 53.51964 | -3.35213 | 18126 ft | 369 kts | 315° |
| 2026-04-24 16:33 | 53.53775 | -3.38320 | 18684 ft | 374 kts | 315° |
| 2026-04-24 16:33 | 53.55606 | -3.41466 | 19224 ft | 377 kts | 315° |
| 2026-04-24 16:34 | 53.57434 | -3.44638 | 19803 ft | 380 kts | 313° |
| 2026-04-24 16:34 | 53.59052 | -3.48162 | 20412 ft | 381 kts | 306° |
| 2026-04-24 16:34 | 53.60587 | -3.51810 | 20986 ft | 383 kts | 306° |
| 2026-04-24 16:34 | 53.62127 | -3.55476 | 21547 ft | 385 kts | 307° |
| 2026-04-24 16:35 | 53.63681 | -3.59169 | 22069 ft | 388 kts | 306° |
| 2026-04-24 16:35 | 53.65242 | -3.62882 | 22609 ft | 389 kts | 307° |
| 2026-04-24 16:35 | 53.66812 | -3.66622 | 23014 ft | 392 kts | 307° |
| 2026-04-24 16:35 | 53.68383 | -3.70378 | 23293 ft | 393 kts | 307° |
| 2026-04-24 16:36 | 53.69964 | -3.74162 | 23570 ft | 397 kts | 307° |
| 2026-04-24 16:36 | 53.71559 | -3.77983 | 23833 ft | 399 kts | 307° |
| 2026-04-24 16:36 | 53.73161 | -3.81828 | 24070 ft | 401 kts | 307° |
| 2026-04-24 16:36 | 53.74766 | -3.85685 | 24223 ft | 403 kts | 307° |
| 2026-04-24 16:37 | 53.76354 | -3.89516 | 24262 ft | 391 kts | 307° |
| 2026-04-24 16:37 | 53.77899 | -3.93250 | 24266 ft | 385 kts | 307° |
| 2026-04-24 16:37 | 53.78913 | -3.95705 | 24272 ft | 384 kts | 307° |
| 2026-04-24 16:37 | 53.80953 | -4.00646 | 24266 ft | 383 kts | 307° |
| 2026-04-24 16:38 | 53.82475 | -4.04342 | 24266 ft | 383 kts | 307° |
| 2026-04-24 16:38 | 53.83997 | -4.08037 | 24266 ft | 382 kts | 307° |
| 2026-04-24 16:38 | 53.85527 | -4.11718 | 24266 ft | 382 kts | 309° |
| 2026-04-24 16:38 | 53.87308 | -4.15027 | 24267 ft | 379 kts | 320° |
| 2026-04-24 16:39 | 53.89410 | -4.17691 | 24272 ft | 376 kts | 331° |
| 2026-04-24 16:39 | 53.91752 | -4.19621 | 24272 ft | 374 kts | 341° |
| 2026-04-24 16:39 | 53.94183 | -4.21202 | 24250 ft | 375 kts | 340° |
| 2026-04-24 16:39 | 53.96621 | -4.22799 | 24247 ft | 376 kts | 340° |
| 2026-04-24 16:40 | 53.99058 | -4.24405 | 24254 ft | 376 kts | 340° |
| 2026-04-24 16:40 | 54.01503 | -4.26024 | 24254 ft | 377 kts | 340° |
| 2026-04-24 16:40 | 54.03947 | -4.27651 | 24252 ft | 377 kts | 340° |
| 2026-04-24 16:40 | 54.06393 | -4.29286 | 24255 ft | 378 kts | 340° |
| 2026-04-24 16:41 | 54.08839 | -4.30924 | 24257 ft | 378 kts | 340° |
| 2026-04-24 16:41 | 54.11289 | -4.32562 | 24259 ft | 378 kts | 340° |
| 2026-04-24 16:41 | 54.13639 | -4.34443 | 24216 ft | 368 kts | 328° |
| 2026-04-24 16:41 | 54.15571 | -4.37218 | 23945 ft | 363 kts | 311° |
| 2026-04-24 16:42 | 54.16911 | -4.40830 | 23505 ft | 361 kts | 292° |
| 2026-04-24 16:42 | 54.17652 | -4.44911 | 23049 ft | 359 kts | 285° |
| 2026-04-24 16:42 | 54.18306 | -4.49018 | 22601 ft | 357 kts | 285° |
| 2026-04-24 16:42 | 54.18948 | -4.53096 | 22177 ft | 355 kts | 285° |
| 2026-04-24 16:43 | 54.19578 | -4.57099 | 21754 ft | 351 kts | 285° |
| 2026-04-24 16:43 | 54.20211 | -4.61107 | 21162 ft | 348 kts | 285° |
| 2026-04-24 16:43 | 54.20842 | -4.65082 | 20590 ft | 345 kts | 285° |
| 2026-04-24 16:43 | 54.21467 | -4.69025 | 20035 ft | 342 kts | 285° |
| 2026-04-24 16:44 | 54.22083 | -4.72934 | 19507 ft | 339 kts | 285° |
| 2026-04-24 16:44 | 54.22691 | -4.76806 | 18995 ft | 336 kts | 285° |
| 2026-04-24 16:44 | 54.23294 | -4.80663 | 18433 ft | 335 kts | 284° |
| 2026-04-24 16:44 | 54.23892 | -4.84505 | 17831 ft | 334 kts | 284° |
| 2026-04-24 16:45 | 54.24488 | -4.88329 | 17280 ft | 331 kts | 284° |
| 2026-04-24 16:45 | 54.25078 | -4.92115 | 16757 ft | 328 kts | 284° |
| 2026-04-24 16:45 | 54.25661 | -4.95865 | 16247 ft | 325 kts | 284° |
| 2026-04-24 16:45 | 54.26239 | -4.99594 | 15764 ft | 323 kts | 284° |
| 2026-04-24 16:46 | 54.26812 | -5.03302 | 15423 ft | 322 kts | 284° |
| 2026-04-24 16:46 | 54.27382 | -5.06987 | 15102 ft | 319 kts | 284° |
| 2026-04-24 16:46 | 54.27950 | -5.10653 | 14783 ft | 318 kts | 284° |
| 2026-04-24 16:46 | 54.28512 | -5.14296 | 14436 ft | 315 kts | 284° |
| 2026-04-24 16:47 | 54.29068 | -5.17912 | 14038 ft | 314 kts | 284° |
| 2026-04-24 16:47 | 54.29620 | -5.21513 | 13602 ft | 312 kts | 284° |
| 2026-04-24 16:47 | 54.30166 | -5.25088 | 13164 ft | 310 kts | 284° |
| 2026-04-24 16:47 | 54.30707 | -5.28643 | 12735 ft | 308 kts | 284° |
| 2026-04-24 16:48 | 54.31243 | -5.32174 | 12309 ft | 306 kts | 284° |
| 2026-04-24 16:48 | 54.31776 | -5.35700 | 11943 ft | 306 kts | 283° |
| 2026-04-24 16:48 | 54.32308 | -5.39229 | 11569 ft | 306 kts | 283° |
| 2026-04-24 16:48 | 54.32838 | -5.42748 | 11226 ft | 304 kts | 283° |
| 2026-04-24 16:49 | 54.33364 | -5.46254 | 10884 ft | 303 kts | 283° |
| 2026-04-24 16:49 | 54.33885 | -5.49732 | 10568 ft | 300 kts | 283° |
| 2026-04-24 16:49 | 54.34404 | -5.53189 | 10252 ft | 298 kts | 283° |
| 2026-04-24 16:49 | 54.34912 | -5.56578 | 9886 ft | 296 kts | 283° |
| 2026-04-24 16:50 | 54.35256 | -5.58877 | 9525 ft | 294 kts | 283° |
| 2026-04-24 16:50 | 54.35924 | -5.63359 | 8824 ft | 291 kts | 283° |
| 2026-04-24 16:50 | 54.36423 | -5.66713 | 8288 ft | 289 kts | 283° |
| 2026-04-24 16:50 | 54.36917 | -5.70044 | 7756 ft | 288 kts | 283° |
| 2026-04-24 16:51 | 54.37406 | -5.73354 | 7246 ft | 285 kts | 283° |
| 2026-04-24 16:51 | 54.37893 | -5.76638 | 6739 ft | 283 kts | 282° |
| 2026-04-24 16:51 | 54.38377 | -5.79898 | 6173 ft | 282 kts | 282° |
| 2026-04-24 16:51 | 54.38858 | -5.83139 | 5632 ft | 279 kts | 282° |
| 2026-04-24 16:52 | 54.39332 | -5.86353 | 5180 ft | 277 kts | 282° |
| 2026-04-24 16:52 | 54.39799 | -5.89537 | 4833 ft | 274 kts | 282° |
| 2026-04-24 16:52 | 54.40257 | -5.92683 | 4569 ft | 266 kts | 282° |
| 2026-04-24 16:52 | 54.40694 | -5.95690 | 4424 ft | 254 kts | 282° |
| 2026-04-24 16:53 | 54.41114 | -5.98570 | 4312 ft | 244 kts | 282° |
| 2026-04-24 16:53 | 54.41517 | -6.01335 | 4161 ft | 234 kts | 282° |
| 2026-04-24 16:53 | 54.42100 | -6.03918 | 3938 ft | 232 kts | 304° |
| 2026-04-24 16:53 | 54.43306 | -6.05738 | 3882 ft | 235 kts | 334° |
| 2026-04-24 16:54 | 54.44876 | -6.06354 | 3761 ft | 231 kts | 4° |
| 2026-04-24 16:54 | 54.46375 | -6.05613 | 3538 ft | 223 kts | 34° |
| 2026-04-24 16:54 | 54.47658 | -6.04120 | 3259 ft | 223 kts | 38° |
| 2026-04-24 16:54 | 54.48919 | -6.02609 | 2961 ft | 218 kts | 37° |
| 2026-04-24 16:55 | 54.50145 | -6.01152 | 2708 ft | 210 kts | 38° |
| 2026-04-24 16:55 | 54.51333 | -5.99742 | 2414 ft | 206 kts | 38° |
| 2026-04-24 16:55 | 54.52498 | -5.98357 | 2124 ft | 200 kts | 37° |
| 2026-04-24 16:55 | 54.53604 | -5.97042 | 1865 ft | 186 kts | 38° |
| 2026-04-24 16:56 | 54.54625 | -5.95829 | 1629 ft | 170 kts | 38° |
| 2026-04-24 16:56 | 54.55551 | -5.94733 | 1389 ft | 156 kts | 39° |
| 2026-04-24 16:56 | 54.56409 | -5.93695 | 1205 ft | 146 kts | 37° |
| 2026-04-24 16:56 | 54.56957 | -5.93045 | 1028 ft | 143 kts | 38° |
| 2026-04-24 16:57 | 54.57757 | -5.92092 | 808 ft | 138 kts | 37° |
| 2026-04-24 16:57 | 54.58782 | -5.90869 | 594 ft | 135 kts | 35° |
| 2026-04-24 16:57 | 54.59544 | -5.89955 | 422 ft | 135 kts | 34° |
| 2026-04-24 16:57 | 54.60313 | -5.89022 | 269 ft | 136 kts | 32° |
| 2026-04-24 16:58 | 54.61078 | -5.88120 | 96 ft | 132 kts | 33° |
| 2026-04-24 16:58 | 54.61804 | -5.87281 | 29 ft | 112 kts | 36° |
| 2026-04-24 16:58 | 54.62137 | -5.86858 | 22 ft | 59 kts | 36° |
| 2026-04-24 16:58 | 54.62351 | -5.86608 | 24 ft | 32 kts | 34° |
| 2026-04-24 16:59 | 54.62421 | -5.86467 | 24 ft | 13 kts | 54° |
| 2026-04-24 16:59 | 54.62456 | -5.86479 | 23 ft | 5 kts | 224° |
| 2026-04-24 16:59 | 54.62295 | -5.86672 | 24 ft | 22 kts | 214° |
| 2026-04-24 17:00 | 54.62168 | -5.86825 | 23 ft | 22 kts | 215° |
| 2026-04-24 17:00 | 54.61889 | -5.87155 | 26 ft | 19 kts | 214° |
| 2026-04-24 17:00 | 54.61827 | -5.87153 | 24 ft | 9 kts | 141° |
| 2026-04-24 17:01 | 54.61749 | -5.86995 | 23 ft | 9 kts | 154° |
| 2026-04-24 17:01 | 54.61670 | -5.87053 | 23 ft | 14 kts | 218° |
| 2026-04-24 17:02 | 54.61542 | -5.87176 | 23 ft | 6 kts | 154° |
| 2026-04-24 17:02 | 54.61508 | -5.87149 | 25 ft | 2 kts | 157° |
| 2026-04-24 17:02 | 54.61497 | -5.87141 | 25 ft | 0 kts | 155° |